createdAt,value
2023-01-13T00:01:33.860Z,94983.09
2023-01-13T00:04:00.384Z,94972.41
2023-01-13T00:06:26.755Z,94968.44
2023-01-13T00:08:53.144Z,94969.09
2023-01-13T00:11:19.518Z,94980.31
2023-01-13T00:13:46.079Z,94982.75
2023-01-13T00:16:12.514Z,94992.78
2023-01-13T00:18:42.733Z,94981.25
2023-01-13T00:21:09.105Z,94980.78
2023-01-13T00:23:35.806Z,94984.53
2023-01-13T00:26:02.380Z,94975.66
2023-01-13T00:28:28.790Z,94985.56
2023-01-13T00:30:55.255Z,94964.13
2023-01-13T00:33:21.911Z,94962.50
2023-01-13T00:35:48.429Z,94949.31
2023-01-13T00:38:16.887Z,94944.19
2023-01-13T00:40:43.279Z,94957.88
2023-01-13T00:43:09.654Z,94944.38
2023-01-13T00:45:36.039Z,94946.69
2023-01-13T00:48:02.521Z,94938.25
2023-01-13T00:50:29.861Z,94929.22
2023-01-13T00:52:56.223Z,94910.47
2023-01-13T00:55:22.637Z,94909.16
2023-01-13T00:57:49.484Z,94930.38
2023-01-13T01:00:16.357Z,94911.44
2023-01-13T01:02:44.014Z,94901.72
2023-01-13T01:05:10.463Z,94914.72
2023-01-13T01:07:36.868Z,94908.31
2023-01-13T01:10:03.542Z,94892.81
2023-01-13T01:12:30.084Z,94881.13
2023-01-13T01:14:56.457Z,94886.41
2023-01-13T01:17:22.823Z,94893.00
2023-01-13T01:19:49.182Z,94898.75
2023-01-13T01:22:15.550Z,94908.50
2023-01-13T01:24:41.976Z,94913.41
2023-01-13T01:27:08.331Z,94902.88
2023-01-13T01:29:35.103Z,94900.59
2023-01-13T01:32:02.532Z,94909.47
2023-01-13T01:34:29.111Z,94918.19
2023-01-13T01:36:56.787Z,94915.09
2023-01-13T01:39:23.167Z,94920.34
2023-01-13T01:41:49.551Z,94914.72
2023-01-13T01:44:16.255Z,94917.38
2023-01-13T01:46:42.750Z,94914.25
2023-01-13T01:49:09.182Z,94902.88
2023-01-13T01:51:35.726Z,94920.00
2023-01-13T01:54:04.411Z,94912.91
2023-01-13T01:56:30.793Z,94910.13
2023-01-13T01:58:57.359Z,94913.09
2023-01-13T02:01:23.846Z,94918.19
2023-01-13T02:03:50.285Z,94911.09
2023-01-13T02:06:16.673Z,94919.69
2023-01-13T02:08:43.037Z,94911.41
2023-01-13T02:11:09.429Z,94915.50
2023-01-13T02:13:35.811Z,94909.38
2023-01-13T02:16:02.245Z,94911.19
2023-01-13T02:18:31.242Z,94905.09
2023-01-13T02:20:59.148Z,94897.72
2023-01-13T02:23:25.524Z,94903.09
2023-01-13T02:25:51.880Z,94904.13
2023-01-13T02:28:18.453Z,94904.28
2023-01-13T02:30:44.964Z,94892.75
2023-01-13T02:33:13.648Z,94895.06
2023-01-13T02:35:41.783Z,94888.28
2023-01-13T02:38:08.152Z,94891.59
2023-01-13T02:40:34.530Z,94893.22
2023-01-13T02:43:00.879Z,94894.53
2023-01-13T02:45:27.276Z,94893.88
2023-01-13T02:47:53.874Z,94896.47
2023-01-13T02:50:20.245Z,94897.00
2023-01-13T02:52:46.607Z,94892.03
2023-01-13T02:55:15.040Z,94890.56
2023-01-13T02:57:41.405Z,94890.91
2023-01-13T03:00:07.733Z,94886.94
2023-01-13T03:02:34.120Z,94874.72
2023-01-13T03:05:02.613Z,94875.75
2023-01-13T03:07:28.997Z,94872.50
2023-01-13T03:09:55.380Z,94874.59
2023-01-13T03:12:21.762Z,94875.75
2023-01-13T03:14:48.117Z,94867.19
2023-01-13T03:17:14.438Z,94860.63
2023-01-13T03:19:40.778Z,94855.88
2023-01-13T03:22:08.113Z,94859.88
2023-01-13T03:24:34.662Z,94863.53
2023-01-13T03:27:01.050Z,94856.09
2023-01-13T03:29:27.384Z,94851.00
2023-01-13T03:31:53.725Z,94855.16
2023-01-13T03:34:20.099Z,94843.13
2023-01-13T03:36:46.476Z,94842.47
2023-01-13T03:39:12.871Z,94845.41
2023-01-13T03:41:39.221Z,94827.16
2023-01-13T03:44:05.600Z,94836.06
2023-01-13T03:46:32.991Z,94837.03
2023-01-13T03:48:59.346Z,94834.41
2023-01-13T03:51:28.741Z,94845.41
2023-01-13T03:53:55.334Z,94835.06
2023-01-13T03:56:21.727Z,94830.63
2023-01-13T03:58:48.123Z,94831.09
2023-01-13T04:01:14.791Z,94820.56
2023-01-13T04:03:41.490Z,94825.34
2023-01-13T04:06:07.844Z,94827.16
2023-01-13T04:08:36.553Z,94840.50
2023-01-13T04:11:02.931Z,94841.47
2023-01-13T04:13:29.342Z,94842.97
2023-01-13T04:15:56.764Z,94839.47
2023-01-13T04:18:23.127Z,94836.38
2023-01-13T04:20:49.508Z,94835.72
2023-01-13T04:23:15.900Z,94838.16
2023-01-13T04:25:49.460Z,94840.16
2023-01-13T04:28:15.790Z,94834.22
2023-01-13T04:30:42.209Z,94829.97
2023-01-13T04:33:08.616Z,94835.41
2023-01-13T04:35:35.055Z,94834.38
2023-01-13T04:38:01.462Z,94828.94
2023-01-13T04:40:27.924Z,94834.03
2023-01-13T04:42:54.313Z,94842.75
2023-01-13T04:45:20.694Z,94844.56
2023-01-13T04:47:47.066Z,94848.00
2023-01-13T04:50:13.435Z,94842.09
2023-01-13T04:52:39.769Z,94837.81
2023-01-13T04:55:06.128Z,94835.00
2023-01-13T04:57:32.516Z,94836.00
2023-01-13T04:59:58.864Z,94825.63
2023-01-13T05:02:27.328Z,94825.16
2023-01-13T05:04:54.043Z,94831.06
2023-01-13T05:07:20.471Z,94839.44
2023-01-13T05:09:46.798Z,94848.19
2023-01-13T05:12:14.241Z,94846.22
2023-01-13T05:14:40.565Z,94839.31
2023-01-13T05:17:07.005Z,94833.03
2023-01-13T05:19:33.350Z,94825.81
2023-01-13T05:21:59.738Z,94828.59
2023-01-13T05:24:26.124Z,94825.81
2023-01-13T05:26:52.483Z,94825.50
2023-01-13T05:29:18.979Z,94824.66
2023-01-13T05:31:45.375Z,94816.75
2023-01-13T05:34:11.952Z,94817.91
2023-01-13T05:36:38.289Z,94815.44
2023-01-13T05:39:04.647Z,94823.66
2023-01-13T05:41:31.133Z,94820.88
2023-01-13T05:44:05.311Z,94820.22
2023-01-13T05:46:31.923Z,94830.41
2023-01-13T05:48:58.325Z,94820.88
2023-01-13T05:51:24.689Z,94821.69
2023-01-13T05:53:51.401Z,94843.06
2023-01-13T05:56:17.740Z,94825.97
2023-01-13T05:58:44.068Z,94828.41
2023-01-13T06:01:10.507Z,94833.03
2023-01-13T06:03:37.500Z,94830.38
2023-01-13T06:06:04.045Z,94819.19
2023-01-13T06:08:33.830Z,94810.66
2023-01-13T06:11:00.225Z,94820.03
2023-01-13T06:13:26.609Z,94806.72
2023-01-13T06:15:55.386Z,94802.94
2023-01-13T06:18:21.782Z,94803.91
2023-01-13T06:20:50.521Z,94806.88
2023-01-13T06:23:16.891Z,94814.94
2023-01-13T06:25:43.262Z,94806.53
2023-01-13T06:28:09.637Z,94801.06
2023-01-13T06:30:36.346Z,94790.22
2023-01-13T06:33:02.686Z,94799.75
2023-01-13T06:35:29.074Z,94789.69
2023-01-13T06:37:55.760Z,94802.22
2023-01-13T06:40:22.490Z,94813.56
2023-01-13T06:42:48.862Z,94794.16
2023-01-13T06:45:15.236Z,94797.31
2023-01-13T06:47:41.627Z,94793.88
2023-01-13T06:50:08.004Z,94793.22
2023-01-13T06:52:34.345Z,94810.31
2023-01-13T06:55:00.997Z,94830.69
2023-01-13T06:57:27.399Z,94832.00
2023-01-13T06:59:53.880Z,94829.06
2023-01-13T07:02:21.245Z,94830.53
2023-01-13T07:04:48.004Z,94838.50
2023-01-13T07:07:14.742Z,94829.25
2023-01-13T07:09:42.127Z,94854.13
2023-01-13T07:12:08.627Z,94853.75
2023-01-13T07:14:34.980Z,94855.88
2023-01-13T07:17:01.472Z,94860.09
2023-01-13T07:19:27.962Z,94862.84
2023-01-13T07:21:54.367Z,94863.59
2023-01-13T07:24:20.786Z,94863.28
2023-01-13T07:26:47.151Z,94870.72
2023-01-13T07:29:13.911Z,94886.31
2023-01-13T07:31:40.301Z,94886.00
2023-01-13T07:34:06.668Z,94895.13
2023-01-13T07:36:33.032Z,94891.91
2023-01-13T07:39:00.457Z,94880.53
2023-01-13T07:41:26.827Z,94890.41
2023-01-13T07:43:53.220Z,94885.84
2023-01-13T07:46:19.627Z,94886.53
2023-01-13T07:48:45.996Z,94888.75
2023-01-13T07:51:12.816Z,94902.34
2023-01-13T07:53:39.366Z,94898.91
2023-01-13T07:56:05.742Z,94889.19
2023-01-13T07:58:32.123Z,94905.94
2023-01-13T08:01:06.291Z,94904.28
2023-01-13T08:03:32.673Z,94913.31
2023-01-13T08:06:01.152Z,94894.75
2023-01-13T08:08:27.491Z,94907.81
2023-01-13T08:10:53.982Z,94898.63
2023-01-13T08:13:20.429Z,94900.59
2023-01-13T08:15:47.301Z,94897.66
2023-01-13T08:18:15.791Z,94907.97
2023-01-13T08:20:43.146Z,94912.81
2023-01-13T08:23:09.492Z,94932.09
2023-01-13T08:25:35.858Z,94927.69
2023-01-13T08:28:05.021Z,94923.06
2023-01-13T08:30:32.450Z,94922.50
2023-01-13T08:32:59.913Z,94905.59
2023-01-13T08:35:26.283Z,94918.56
2023-01-13T08:37:55.756Z,94914.47
2023-01-13T08:40:24.909Z,94906.56
2023-01-13T08:42:56.199Z,94905.59
2023-01-13T08:45:22.583Z,94916.41
2023-01-13T08:47:48.928Z,94910.13
2023-01-13T10:08:26.198Z,95015.53
2023-01-13T10:11:31.601Z,95009.25
2023-01-13T10:13:48.601Z,95004.66
2023-01-13T10:24:27.797Z,95018.31
2023-01-13T10:27:01.653Z,95014.16
2023-01-13T10:29:28.035Z,95018.94
2023-01-13T10:31:55.413Z,95002.94
2023-01-13T10:34:21.797Z,95009.69
2023-01-13T10:36:48.532Z,94996.28
2023-01-13T10:39:14.936Z,95018.25
2023-01-13T10:41:41.511Z,95010.63
2023-01-13T10:44:10.403Z,94998.59
2023-01-13T10:46:38.805Z,94990.38
2023-01-13T10:49:05.421Z,94994.69
2023-01-13T10:51:34.166Z,94994.59
2023-01-13T10:54:00.545Z,94991.09
2023-01-13T10:56:26.933Z,94997.06
2023-01-13T10:58:53.621Z,95003.97
2023-01-13T11:01:21.122Z,94986.50
2023-01-13T11:03:47.529Z,94987.28
2023-01-13T11:06:14.018Z,94986.91
2023-01-13T11:08:40.706Z,94983.44
2023-01-13T11:11:07.041Z,94992.19
2023-01-13T11:13:37.888Z,95003.22
2023-01-13T11:16:04.373Z,95004.75
2023-01-13T11:18:30.808Z,95002.63
2023-01-13T11:20:58.210Z,95003.25
2023-01-13T11:23:24.845Z,95009.47
2023-01-13T11:25:52.187Z,95001.69
2023-01-13T11:28:19.581Z,95015.53
2023-01-13T11:30:46.098Z,95005.72
2023-01-13T11:33:12.452Z,95000.59
2023-01-13T11:35:38.843Z,94997.31
2023-01-13T11:38:06.674Z,94978.13
2023-01-13T11:40:33.030Z,94985.56
2023-01-13T11:42:59.969Z,94979.94
2023-01-13T11:48:09.089Z,94972.72
2023-01-13T11:50:35.535Z,94970.75
2023-01-13T11:53:04.896Z,94960.88
2023-01-13T11:55:31.249Z,94971.56
2023-01-13T11:58:00.163Z,94984.19
2023-01-13T12:00:26.559Z,94984.16
2023-01-13T12:02:52.940Z,94975.75
2023-01-13T12:05:21.809Z,94976.44
2023-01-13T12:07:48.212Z,94979.22
2023-01-13T12:10:18.044Z,94979.53
2023-01-13T12:12:44.443Z,94966.16
2023-01-13T12:15:13.172Z,94960.53
2023-01-13T12:17:40.063Z,94948.31
2023-01-13T12:20:06.820Z,94954.19
2023-01-13T12:22:35.924Z,94967.78
2023-01-13T12:25:03.144Z,94973.94
2023-01-13T12:27:29.757Z,95000.19
2023-01-13T12:29:56.529Z,95019.78
2023-01-13T12:32:22.945Z,95005.94
2023-01-13T12:34:50.980Z,95013.25
2023-01-13T12:37:17.912Z,95027.50
2023-01-13T12:39:45.921Z,95016.44
2023-01-13T12:42:15.092Z,95003.22
2023-01-13T12:44:41.438Z,95018.66
2023-01-13T12:47:07.806Z,95004.03
2023-01-13T12:49:35.108Z,95016.97
2023-01-13T12:52:01.492Z,95033.44
2023-01-13T12:54:27.869Z,95034.13
2023-01-13T12:56:54.506Z,95020.97
2023-01-13T12:59:21.873Z,95006.78
2023-01-13T13:01:49.365Z,95015.34
2023-01-13T13:04:15.851Z,95013.94
2023-01-13T13:06:45.262Z,95031.53
2023-01-13T13:09:12.407Z,95012.94
2023-01-13T13:11:39.854Z,95010.44
2023-01-13T13:14:06.753Z,95007.00
2023-01-13T13:16:33.652Z,95012.22
2023-01-13T13:19:02.916Z,95013.91
2023-01-13T13:21:32.354Z,95021.50
2023-01-13T13:24:00.835Z,95032.13
2023-01-13T13:26:28.191Z,95041.69
2023-01-13T13:28:54.575Z,95033.38
2023-01-13T13:31:21.002Z,95020.56
2023-01-13T13:33:49.935Z,95050.53
2023-01-13T13:36:17.575Z,95038.66
2023-01-13T13:38:43.934Z,95045.31
2023-01-13T13:41:10.434Z,95045.72
2023-01-13T13:43:37.820Z,95053.47
2023-01-13T13:46:06.582Z,95049.97
2023-01-13T13:48:33.025Z,95065.03
2023-01-13T13:50:59.425Z,95052.94
2023-01-13T13:53:27.896Z,95045.31
2023-01-13T13:55:54.274Z,95032.78
2023-01-13T13:58:20.624Z,95041.47
2023-01-13T14:00:47.000Z,95036.97
2023-01-13T14:03:13.594Z,95042.25
2023-01-13T14:05:39.940Z,95037.88
2023-01-13T14:08:07.508Z,95048.19
2023-01-13T14:10:33.894Z,95043.44
2023-01-13T14:13:00.932Z,95055.38
2023-01-13T14:15:27.337Z,95044.50
2023-01-13T14:17:53.743Z,95054.69
2023-01-13T14:20:22.390Z,95047.28
2023-01-13T14:22:51.904Z,95067.34
2023-01-13T14:25:18.298Z,95065.84
2023-01-13T14:27:44.892Z,95053.81
2023-01-13T14:30:13.328Z,95053.31
2023-01-13T14:32:39.672Z,95058.56
2023-01-13T14:35:06.183Z,95064.53
2023-01-13T14:37:32.536Z,95058.25
2023-01-13T14:40:01.284Z,95063.44
2023-01-13T14:42:28.845Z,95066.22
2023-01-13T14:44:56.315Z,95070.78
2023-01-13T14:47:22.987Z,95063.38
2023-01-13T14:49:49.322Z,95066.84
2023-01-13T14:52:15.738Z,95070.66
2023-01-13T14:54:42.227Z,95075.63
2023-01-13T14:57:09.017Z,95086.31
2023-01-13T14:59:35.387Z,95088.97
2023-01-13T15:02:01.776Z,95106.31
2023-01-13T15:04:28.171Z,95107.34
2023-01-13T15:06:54.948Z,95102.06
2023-01-13T15:09:21.362Z,95114.09
2023-01-13T15:11:50.284Z,95118.41
2023-01-13T15:14:18.761Z,95129.94
2023-01-13T15:16:49.941Z,95135.38
2023-01-13T15:19:16.807Z,95134.72
2023-01-13T15:21:45.469Z,95133.88
2023-01-13T15:24:12.832Z,95135.72
2023-01-13T15:26:39.223Z,95141.94
2023-01-13T15:29:07.922Z,95146.53
2023-01-13T15:31:35.342Z,95142.75
2023-01-13T15:34:01.710Z,95141.25
2023-01-13T15:36:28.051Z,95148.34
2023-01-13T15:38:54.418Z,95151.97
2023-01-13T15:41:21.853Z,95166.16
2023-01-13T15:43:48.226Z,95164.19
2023-01-13T15:46:14.633Z,95175.38
2023-01-13T15:48:41.086Z,95170.88
2023-01-13T15:51:08.589Z,95175.34
2023-01-13T15:53:35.120Z,95187.97
2023-01-13T15:56:01.499Z,95197.72
2023-01-13T15:58:30.829Z,95195.38
2023-01-13T16:00:57.230Z,95205.06
2023-01-13T16:03:23.633Z,95202.50
2023-01-13T16:05:50.269Z,95219.25
2023-01-13T16:08:22.345Z,95208.81
2023-01-13T16:10:49.154Z,95206.63
2023-01-13T16:13:15.516Z,95205.59
2023-01-13T16:15:43.297Z,95221.03
2023-01-13T16:18:09.678Z,95213.13
2023-01-13T16:20:36.067Z,95215.28
2023-01-13T16:23:03.867Z,95219.25
2023-01-13T16:25:31.269Z,95225.31
2023-01-13T16:27:57.617Z,95220.66
2023-01-13T16:30:24.860Z,95223.94
2023-01-13T16:32:51.232Z,95230.84
2023-01-13T16:35:19.926Z,95228.94
2023-01-13T16:37:46.261Z,95237.13
2023-01-13T16:40:13.672Z,95238.84
2023-01-13T16:42:40.037Z,95255.72
2023-01-13T16:45:07.736Z,95259.91
2023-01-13T16:47:34.636Z,95257.50
2023-01-13T16:50:04.248Z,95266.06
2023-01-13T16:52:35.388Z,95263.81
2023-01-13T16:55:01.784Z,95260.19
2023-01-13T16:57:29.193Z,95263.28
2023-01-13T16:59:56.551Z,95264.50
2023-01-13T17:02:23.927Z,95260.72
2023-01-13T17:04:50.300Z,95269.84
2023-01-13T17:07:16.752Z,95260.53
2023-01-13T17:09:43.197Z,95268.25
2023-01-13T17:12:09.546Z,95267.47
2023-01-13T17:14:35.876Z,95285.31
2023-01-13T17:17:03.230Z,95291.13
2023-01-13T17:19:31.636Z,95302.09
2023-01-13T17:21:58.102Z,95309.25
2023-01-13T17:24:25.609Z,95313.78
2023-01-13T17:26:51.962Z,95322.34
2023-01-13T17:29:18.423Z,95325.28
2023-01-13T17:31:45.069Z,95319.41
2023-01-13T17:34:11.679Z,95324.72
2023-01-13T17:36:38.304Z,95332.75
2023-01-13T17:39:04.959Z,95337.50
2023-01-13T17:41:32.520Z,95336.38
2023-01-13T17:43:59.958Z,95334.56
2023-01-13T17:46:27.391Z,95342.06
2023-01-13T17:48:53.822Z,95344.97
2023-01-13T17:51:21.964Z,95343.03
2023-01-13T17:53:48.645Z,95338.69
2023-01-13T17:56:19.519Z,95343.69
2023-01-13T17:58:45.904Z,95346.06
2023-01-13T18:01:13.023Z,95354.78
2023-01-13T18:03:40.402Z,95352.38
2023-01-13T18:06:07.791Z,95356.69
2023-01-13T18:08:34.486Z,95369.88
2023-01-13T18:11:00.912Z,95370.66
2023-01-13T18:13:30.310Z,95375.34
2023-01-13T18:15:56.967Z,95395.81
2023-01-13T18:18:30.675Z,95389.75
2023-01-13T18:20:57.041Z,95383.91
2023-01-13T18:23:26.030Z,95389.88
2023-01-13T18:25:55.771Z,95389.53
2023-01-13T18:28:22.332Z,95390.47
2023-01-13T18:30:49.733Z,95393.31
2023-01-13T18:33:19.004Z,95399.16
2023-01-13T18:35:45.373Z,95401.59
2023-01-13T18:38:11.709Z,95409.34
2023-01-13T18:40:38.036Z,95411.69
2023-01-13T18:43:04.629Z,95412.50
2023-01-13T18:45:30.991Z,95405.53
2023-01-13T18:47:57.752Z,95417.03
2023-01-13T18:50:24.756Z,95420.19
2023-01-13T18:52:51.128Z,95422.69
2023-01-13T18:55:17.463Z,95415.78
2023-01-13T18:57:43.801Z,95419.88
2023-01-13T19:00:10.178Z,95426.97
2023-01-13T19:02:36.582Z,95436.59
2023-01-13T19:05:02.998Z,95438.69
2023-01-13T19:07:29.391Z,95448.53
2023-01-13T19:09:55.921Z,95435.34
2023-01-13T19:12:22.755Z,95437.72
2023-01-13T19:14:49.285Z,95442.84
2023-01-13T19:17:15.665Z,95439.69
2023-01-13T19:19:42.065Z,95450.19
2023-01-13T19:22:08.877Z,95458.09
2023-01-13T19:24:35.221Z,95454.88
2023-01-13T19:27:04.620Z,95457.63
2023-01-13T19:29:33.874Z,95447.31
2023-01-13T19:32:00.439Z,95450.09
2023-01-13T19:34:26.908Z,95446.31
2023-01-13T19:36:53.251Z,95455.56
2023-01-13T19:39:19.742Z,95461.50
2023-01-13T19:41:46.734Z,95464.31
2023-01-13T19:44:15.981Z,95471.41
2023-01-13T19:46:42.376Z,95479.16
2023-01-13T19:49:08.765Z,95475.09
2023-01-13T19:51:35.145Z,95474.94
2023-01-13T19:54:01.553Z,95472.03
2023-01-13T19:56:27.960Z,95472.78
2023-01-13T19:58:54.449Z,95481.81
2023-01-13T20:01:20.915Z,95484.41
2023-01-13T20:03:47.653Z,95481.94
2023-01-13T20:06:14.056Z,95494.66
2023-01-13T20:08:40.435Z,95492.44
2023-01-13T20:11:06.782Z,95491.72
2023-01-13T20:13:33.558Z,95487.72
2023-01-13T20:16:04.952Z,95488.84
2023-01-13T20:18:31.581Z,95490.81
2023-01-13T20:20:57.971Z,95493.03
2023-01-13T20:23:24.563Z,95502.59
2023-01-13T20:25:58.048Z,95495.44
2023-01-13T20:28:24.960Z,95503.88
2023-01-13T20:30:51.512Z,95498.59
2023-01-13T20:33:17.848Z,95496.66
2023-01-13T20:35:44.201Z,95495.81
2023-01-13T20:38:10.532Z,95495.66
2023-01-13T20:40:36.979Z,95500.81
2023-01-13T20:43:03.501Z,95503.44
2023-01-13T20:45:34.183Z,95506.44
2023-01-13T20:48:02.624Z,95513.78
2023-01-13T20:50:28.960Z,95527.81
2023-01-13T20:53:02.066Z,95531.81
2023-01-13T20:55:28.931Z,95535.72
2023-01-13T20:57:56.006Z,95538.78
2023-01-13T21:00:22.361Z,95534.91
2023-01-13T21:02:48.695Z,95535.22
2023-01-13T21:05:15.033Z,95533.81
2023-01-13T21:07:52.631Z,95528.28
2023-01-13T21:10:19.041Z,95529.94
2023-01-13T21:12:45.397Z,95531.03
2023-01-13T21:15:11.744Z,95535.59
2023-01-13T21:17:40.540Z,95528.25
2023-01-13T21:20:07.132Z,95525.47
2023-01-13T21:22:34.471Z,95528.94
2023-01-13T21:25:04.250Z,95528.94
2023-01-13T21:27:32.736Z,95523.69
2023-01-13T21:30:01.163Z,95514.56
2023-01-13T21:32:27.981Z,95510.28
2023-01-13T21:34:56.728Z,95504.88
2023-01-13T21:37:24.407Z,95493.53
2023-01-13T21:39:50.956Z,95492.84
2023-01-13T21:42:17.314Z,95489.69
2023-01-13T21:44:44.707Z,95491.47
2023-01-13T21:47:11.085Z,95495.31
2023-01-13T21:49:37.528Z,95489.59
2023-01-13T21:52:03.879Z,95495.19
2023-01-13T21:54:30.222Z,95498.06
2023-01-13T21:56:58.015Z,95501.28
2023-01-13T21:59:24.344Z,95508.47
2023-01-13T22:02:02.020Z,95508.88
2023-01-13T22:04:37.241Z,95511.09
2023-01-13T22:07:03.609Z,95516.09
2023-01-13T22:09:29.992Z,95513.31
2023-01-13T22:11:56.379Z,95509.44
2023-01-13T22:14:22.767Z,95519.13
2023-01-13T22:16:56.492Z,95516.09
2023-01-13T22:19:22.833Z,95527.28
2023-01-13T22:21:49.170Z,95526.59
2023-01-13T22:24:18.094Z,95531.56
2023-01-13T22:26:44.428Z,95526.31
2023-01-13T22:29:10.764Z,95516.78
2023-01-13T22:31:38.140Z,95519.00
2023-01-13T22:34:12.406Z,95527.41
2023-01-13T22:36:38.794Z,95514.41
2023-01-13T22:39:05.163Z,95520.09
2023-01-13T22:41:32.046Z,95517.03
2023-01-13T22:43:58.648Z,95518.88
2023-01-13T22:46:24.986Z,95512.34
2023-01-13T22:48:51.330Z,95513.59
2023-01-13T22:51:17.697Z,95506.97
2023-01-13T22:53:44.037Z,95510.84
2023-01-13T22:56:10.641Z,95502.56
2023-01-13T22:58:36.985Z,95502.16
2023-01-13T23:01:03.433Z,95499.94
2023-01-13T23:03:29.848Z,95495.94
2023-01-13T23:05:56.302Z,95504.94
2023-01-13T23:08:22.682Z,95502.84
2023-01-13T23:10:49.061Z,95499.94
2023-01-13T23:13:15.441Z,95512.78
2023-01-13T23:15:41.861Z,95507.53
2023-01-13T23:18:08.333Z,95508.66
2023-01-13T23:20:37.057Z,95505.91
2023-01-13T23:23:03.415Z,95508.41
2023-01-13T23:25:29.809Z,95513.09
2023-01-13T23:27:56.235Z,95512.53
2023-01-13T23:30:22.587Z,95507.72
2023-01-13T23:32:49.161Z,95499.25
2023-01-13T23:35:16.087Z,95499.66
2023-01-13T23:37:42.471Z,95500.09
2023-01-13T23:40:09.151Z,95505.78
2023-01-13T23:42:35.539Z,95496.47
2023-01-13T23:45:01.924Z,95493.16
2023-01-13T23:47:30.589Z,95487.75
2023-01-13T23:49:56.928Z,95485.69
2023-01-13T23:52:24.274Z,95483.50
2023-01-13T23:54:50.643Z,95474.22
2023-01-13T23:57:17.269Z,95465.66
2023-01-13T23:59:44.683Z,95473.28
